• Join FlightAware (Why Join?)
  • Login
  • US Flag 
07:31AM EDT


 

Airport Tracker/Info


-or-


 

Live Flight TrackerFlight Track Log ✈ AFL150 ✈ 24-Feb-2014 ✈ UUEE / SVO - MUHA / HAV

Flight Track Log - Related Links

Times and Time Zones

All times are in EST time to prevent confusion due to time zone crossing. See the AFL150 flight status page for this flight to view local times or setup timezone preferences in your user account.

Time Position Orientation Groundspeed Altitude Reporting Facility
EST Latitude Longitude Course Direction KTS MPH feet Rate Location/Type
08:44PM 25.3442 -81.9622 201° Southwest 391 450 31,900  Level Miami Center
08:45PM 25.2467 -82.0019 200° South 391 450 30,900 -1,020 Descending Miami Center
08:46PM 25.1492 -82.0414 200° South 378 435 29,900 -960 Descending Miami Center
08:47PM 25.0600 -82.0833 203° Southwest 373 429 29,000 -840 Descending Miami Center
08:48PM 24.9628 -82.1206 199° South 373 429 28,300 -540 Descending Miami Center
08:53PM 24.4942 -82.3150 198° South 363 418 25,800 -540 Descending Miami Center
08:54PM 24.3989 -82.3494 198° South 356 410 25,300 -540 Descending Miami Center
08:55PM 24.3097 -82.3911 203° Southwest 356 410 24,800 -660 Descending Miami Center
08:56PM 24.2081 -82.4344 201° Southwest 356 410 24,000 -900 Descending Miami Center
08:57PM 24.3284 -82.3759 201° Southwest  Level FlightAware Approximate
08:57PM 24.1189 -82.4739 202° Southwest 356 410 23,100  Level Miami Center
08:58PM 24.2508 -82.4092 201° Southwest  Level FlightAware Approximate
08:58PM 24.0297 -82.5083 199° South 351 404 22,500  Level Miami Center
08:59PM 24.1720 -82.4390 198° South  Level FlightAware Approximate
08:59PM 23.9392 -82.5317 193° South 351 404 21,000  Level Miami Center
09:01PM 23.8160 -82.4972 166° South  Level FlightAware Approximate
09:08PM 23.0124 -82.4000 180° South  Level FlightAware Approximate
09:09PM 22.9891 -82.4091 180° South  Level Estimated
09:10PM 22.9891 -82.4091 180° South  Level Estimated
09:11PM 22.9891 -82.4091 180° South  Level Estimated
09:12PM 22.9891 -82.4091 180° South  Level Estimated
09:13PM 22.9891 -82.4091 180° South  Level Estimated
09:14PM 22.9891 -82.4091 180° South  Level Estimated
09:15PM 22.9891 -82.4091 180° South  Level Estimated
09:16PM 22.9891 -82.4091 180° South  Level Estimated
09:17PM 22.9891 -82.4091 180° South  Level Estimated
09:18PM 22.9891 -82.4091 180° South  Level Estimated
09:19PM 22.9891 -82.4091 180° South  Level Estimated
09:20PM 22.9891 -82.4091 180° South  Level Estimated
09:21PM 22.9891 -82.4091 180° South  Level Estimated
09:22PM 22.9891 -82.4091 180° South  Level Estimated
09:23PM 22.9891 -82.4091 180° South  Level Estimated
09:24PM 22.9891 -82.4091 180° South  Level Estimated
09:25PM 22.9891 -82.4091 180° South  Level Estimated
09:26PM 22.9891 -82.4091 180° South  Level Estimated
09:27PM 22.9891 -82.4091 180° South  Level Estimated
09:28PM 22.9891 -82.4091 180° South  Level Estimated